»·PEaware :: N335AK KCXP-KSEE

N335AK :: KCXP-KSEE

FLIGHT INFORMATION

Flight Status: Arrived
Operator: Privately registered:
United States
More flights under this callsign
Pilot: Gabor H. (24209)
Aircraft: Unknown
(EPIC)
More flights by this aircraft type
Origin: KCXP Carson
United States
Destination: KSEE Gillespie
United States
More flights between these airports :: More routes between these airports
Route: +JIMPA PUSHH Q11 LAX V25 PACIF V208 MZB320 MZB
File this flight plan on PilotEdge
Remarks:
Altitude:
(Current/Filed)
31,000ft
Speed:
(Current/Filed)
325kts
Departed: 28-Aug-20 07:23 AM
Arrived: 28-Aug-20 08:56 AM
Distance/Time
Traveled:
405nm/1:33
Distance/Time
To Go:
Arrived

Flight Plot

Page will automatically refresh every two minutes.

Flight plan parsing failed; only flown route is shown


Map Options




Map Legend


Flown Route
Filed Route
Departure Airport
Arrival Airport
Navaid (VOR, NDB)
Fix

Horizontal Profiles

Position Reports

Time Latitude Longitude Heading Altitude Ground
Speed
28-Aug-20 07:04 39.195884 -119.745512 195 4707ft 0kts
28-Aug-20 07:05 39.195884 -119.745512 195 4707ft 0kts
28-Aug-20 07:06 39.195884 -119.745512 195 4707ft 0kts
28-Aug-20 07:07 39.195884 -119.745512 195 4707ft 0kts
28-Aug-20 07:08 39.195884 -119.745512 195 4707ft 0kts
28-Aug-20 07:09 39.195884 -119.745512 195 4707ft 0kts
28-Aug-20 07:10 39.195884 -119.745512 195 4707ft 0kts
28-Aug-20 07:11 39.195884 -119.745512 195 4707ft 0kts
28-Aug-20 07:12 39.195195 -119.744284 79 4705ft 7kts
28-Aug-20 07:13 39.195301 -119.742915 103 4705ft 3kts
28-Aug-20 07:14 39.195300 -119.742910 103 4705ft 0kts
28-Aug-20 07:15 39.195300 -119.742910 103 4705ft 0kts
28-Aug-20 07:16 39.195300 -119.742910 103 4705ft 0kts
28-Aug-20 07:17 39.195300 -119.742910 103 4705ft 0kts
28-Aug-20 07:18 39.195300 -119.742910 103 4705ft 0kts
28-Aug-20 07:19 39.195021 -119.742704 194 4705ft 2kts
28-Aug-20 07:20 39.194826 -119.742765 193 4704ft 0kts
28-Aug-20 07:21 39.194095 -119.742739 89 4703ft 1kts
28-Aug-20 07:22 39.190719 -119.727311 109 5111ft 138kts
28-Aug-20 07:23 39.169367 -119.689107 173 8185ft 185kts
28-Aug-20 07:24 39.114495 -119.688729 177 11539ft 194kts
28-Aug-20 07:25 39.060831 -119.689410 176 14886ft 202kts
28-Aug-20 07:26 38.998823 -119.690232 177 17151ft 249kts
28-Aug-20 07:27 38.926063 -119.684914 171 19134ft 276kts
28-Aug-20 07:28 38.854794 -119.676248 172 21451ft 241kts
28-Aug-20 07:29 38.787534 -119.668080 173 22893ft 242kts
28-Aug-20 07:30 38.720937 -119.659998 174 24396ft 240kts
28-Aug-20 07:31 38.655525 -119.652048 175 25890ft 234kts
28-Aug-20 07:32 38.591752 -119.644340 176 27382ft 227kts
28-Aug-20 07:33 38.529790 -119.636872 178 28683ft 226kts
28-Aug-20 07:34 38.466776 -119.629300 178 29680ft 231kts
28-Aug-20 07:35 38.401930 -119.621507 179 30568ft 236kts
28-Aug-20 07:36 38.335616 -119.613577 180 31168ft 248kts
28-Aug-20 07:37 38.263522 -119.596486 172 31169ft 278kts
28-Aug-20 07:38 38.185994 -119.574470 172 31185ft 292kts
28-Aug-20 07:39 38.105887 -119.551744 172 31225ft 297kts
28-Aug-20 07:40 38.025376 -119.528961 172 31248ft 296kts
28-Aug-20 07:41 37.945258 -119.506349 172 31256ft 296kts
28-Aug-20 07:42 37.865098 -119.483774 172 31259ft 296kts
28-Aug-20 07:43 37.784280 -119.461058 172 31260ft 297kts
28-Aug-20 07:44 37.703803 -119.438490 172 31261ft 297kts
28-Aug-20 07:45 37.623060 -119.415897 172 31262ft 297kts
28-Aug-20 07:46 37.542456 -119.393394 172 31207ft 299kts
28-Aug-20 07:47 37.461074 -119.370719 172 31138ft 300kts
28-Aug-20 07:48 37.381074 -119.348478 172 31141ft 298kts
28-Aug-20 07:49 37.300351 -119.326094 173 31176ft 295kts
28-Aug-20 07:50 37.220234 -119.303927 172 31106ft 297kts
28-Aug-20 07:51 37.139143 -119.281537 172 30941ft 300kts
28-Aug-20 07:52 37.057911 -119.259155 172 30895ft 298kts
28-Aug-20 07:53 36.977475 -119.237044 171 30931ft 294kts
28-Aug-20 07:54 36.899340 -119.215602 171 30935ft 293kts
28-Aug-20 07:55 36.819712 -119.193804 171 30901ft 294kts
28-Aug-20 07:56 36.739530 -119.171900 171 30878ft 294kts
28-Aug-20 07:57 36.659759 -119.150154 171 30880ft 294kts
28-Aug-20 07:58 36.579995 -119.128460 171 30880ft 293kts
28-Aug-20 07:59 36.500291 -119.106824 171 30880ft 293kts
28-Aug-20 08:00 36.420734 -119.085276 171 30882ft 293kts
28-Aug-20 08:01 36.341158 -119.063765 171 30885ft 293kts
28-Aug-20 08:02 36.261672 -119.042324 171 30888ft 293kts
28-Aug-20 08:03 36.182207 -119.020933 172 30888ft 293kts
28-Aug-20 08:04 36.102973 -118.999634 172 30887ft 292kts
28-Aug-20 08:05 36.023675 -118.978332 172 30887ft 291kts
28-Aug-20 08:06 35.944778 -118.957184 172 30886ft 291kts
28-Aug-20 08:07 35.867575 -118.936533 172 30893ft 291kts
28-Aug-20 08:08 35.788551 -118.915434 173 30889ft 291kts
28-Aug-20 08:09 35.708868 -118.894204 173 30881ft 291kts
28-Aug-20 08:10 35.629920 -118.873212 173 30892ft 291kts
28-Aug-20 08:11 35.550892 -118.852243 173 30891ft 290kts
28-Aug-20 08:12 35.472040 -118.831349 174 30891ft 290kts
28-Aug-20 08:13 35.393231 -118.809833 174 30890ft 289kts
28-Aug-20 08:15 35.314750 -118.789154 174 30896ft 288kts
28-Aug-20 08:16 35.236609 -118.768624 174 30912ft 288kts
28-Aug-20 08:17 35.158314 -118.748091 174 30957ft 286kts
28-Aug-20 08:18 35.080732 -118.727786 174 31036ft 285kts
28-Aug-20 08:19 35.003319 -118.707566 174 31080ft 285kts
28-Aug-20 08:20 34.925902 -118.687385 175 31079ft 285kts
28-Aug-20 08:21 34.849097 -118.667409 175 31081ft 286kts
28-Aug-20 08:22 34.771032 -118.647138 175 31049ft 287kts
28-Aug-20 08:23 34.693041 -118.626924 175 31007ft 288kts
28-Aug-20 08:24 34.614779 -118.606678 175 30965ft 288kts
28-Aug-20 08:25 34.536454 -118.586455 175 30934ft 288kts
28-Aug-20 08:26 34.458406 -118.566344 175 30918ft 287kts
28-Aug-20 08:27 34.380280 -118.546250 175 30903ft 287kts
28-Aug-20 08:28 34.302395 -118.526256 175 30903ft 286kts
28-Aug-20 08:29 34.224380 -118.506268 175 30900ft 286kts
28-Aug-20 08:30 34.146360 -118.486315 175 30899ft 286kts
28-Aug-20 08:31 34.068689 -118.466489 175 30899ft 285kts
28-Aug-20 08:31 34.005850 -118.450477 175 30898ft 285kts
28-Aug-20 08:33 33.917964 -118.414581 149 30906ft 306kts
28-Aug-20 08:33 33.865114 -118.359372 147 30906ft 309kts
28-Aug-20 08:34 33.797775 -118.287772 146 29487ft 336kts
28-Aug-20 08:36 33.714422 -118.199263 146 27710ft 347kts
28-Aug-20 08:36 33.653649 -118.134903 145 26418ft 354kts
28-Aug-20 08:37 33.579308 -118.056343 145 24838ft 357kts
28-Aug-20 08:38 33.504694 -117.977677 145 23254ft 357kts
28-Aug-20 08:39 33.430007 -117.899104 145 21669ft 356kts
28-Aug-20 08:40 33.356632 -117.822087 145 20112ft 348kts
28-Aug-20 08:41 33.288629 -117.741746 118 18556ft 358kts
28-Aug-20 08:42 33.268949 -117.623895 104 16992ft 357kts
28-Aug-20 08:43 33.252595 -117.509047 114 15706ft 337kts
28-Aug-20 08:44 33.186096 -117.445359 159 14186ft 309kts
28-Aug-20 08:45 33.110806 -117.400361 140 12336ft 304kts
28-Aug-20 08:46 33.083370 -117.307139 111 10312ft 292kts
28-Aug-20 08:47 33.060995 -117.216983 111 8984ft 258kts
28-Aug-20 08:48 33.040076 -117.134052 111 8991ft 261kts
28-Aug-20 08:49 33.018093 -117.051855 110 7457ft 254kts
28-Aug-20 08:50 32.984773 -116.995060 150 6991ft 178kts
28-Aug-20 08:51 32.936858 -116.971512 175 5451ft 193kts
28-Aug-20 08:52 32.888958 -116.972521 183 2913ft 165kts
28-Aug-20 08:53 32.851543 -116.973080 182 1169ft 106kts
28-Aug-20 08:54 32.825537 -116.972466 180 376ft 73kts
28-Aug-20 08:55 32.821762 -116.971758 180 381ft 9kts
28-Aug-20 08:56 32.821576 -116.970938 352 384ft 0kts
28-Aug-20 08:57 32.821576 -116.970938 352 384ft 0kts
28-Aug-20 08:58 32.821576 -116.970938 352 384ft 0kts
28-Aug-20 08:59 32.821576 -116.970938 352 384ft 0kts

Navigation Log

Ident Type
Flight plan parsing failed, navigation log unavailable